Time;durP1;ratioP1;P1;durP2;ratioP2;P2;SDS_P1;SDS_P2;PMS_P1;PMS_P2;Temp;Humidity;BMP_temperature;BMP_pressure;BME280_temperature;BME280_humidity;BME280_pressure;Samples;Min_cycle;Max_cycle;Signal;HPM_P1;HPM_P2
2023/03/20 00:00:45;;;;;;;4.78;3.65;;;8.60;99.90;;;;;;5046873;28;20041;-66
2023/03/20 00:03:12;;;;;;;4.70;3.38;;;8.60;99.90;;;;;;5053096;28;20070;-67
2023/03/20 00:05:38;;;;;;;6.28;3.63;;;8.60;99.90;;;;;;5036067;28;20115;-66
2023/03/20 00:08:04;;;;;;;3.58;3.05;;;8.60;99.90;;;;;;5048023;28;20520;-66
2023/03/20 00:10:35;;;;;;;3.00;2.72;;;8.60;99.90;;;;;;5052236;28;20040;-66
2023/03/20 00:13:02;;;;;;;5.00;3.60;;;8.60;99.90;;;;;;5048781;28;20037;-66
2023/03/20 00:15:33;;;;;;;4.60;4.03;;;8.50;99.90;;;;;;5042958;28;20130;-67
2023/03/20 00:17:59;;;;;;;3.72;3.05;;;8.60;99.90;;;;;;5045696;28;20043;-68
2023/03/20 00:20:25;;;;;;;3.90;2.75;;;8.60;99.90;;;;;;5049982;28;20025;-66
2023/03/20 00:22:52;;;;;;;5.38;3.90;;;8.50;99.90;;;;;;5047524;28;20433;-66
2023/03/20 00:25:20;;;;;;;6.65;4.32;;;8.40;99.90;;;;;;5061215;28;20029;-66
2023/03/20 00:27:47;;;;;;;6.07;4.82;;;8.40;99.90;;;;;;5057189;28;20110;-66
2023/03/20 00:30:21;;;;;;;6.10;4.70;;;8.40;99.90;;;;;;5058709;28;20150;-70
2023/03/20 00:32:48;;;;;;;3.10;2.80;;;8.40;99.90;;;;;;5059826;28;20048;-70
2023/03/20 00:35:18;;;;;;;4.88;3.50;;;8.40;99.90;;;;;;5058268;28;20136;-70
2023/03/20 00:37:44;;;;;;;6.25;4.55;;;8.30;99.90;;;;;;5040466;28;21762;-70
2023/03/20 00:40:10;;;;;;;3.40;2.30;;;8.20;99.90;;;;;;5052260;28;20136;-70
2023/03/20 00:42:36;;;;;;;3.78;2.88;;;8.30;99.90;;;;;;5053402;28;20044;-70
2023/03/20 00:45:02;;;;;;;7.00;3.22;;;8.10;99.90;;;;;;5053994;28;20473;-71
2023/03/20 00:47:29;;;;;;;4.13;3.20;;;8.10;99.90;;;;;;5049299;28;20079;-70
2023/03/20 00:49:55;;;;;;;3.13;2.75;;;8.10;99.90;;;;;;5048085;28;20093;-70
2023/03/20 00:52:21;;;;;;;3.20;2.90;;;8.10;99.90;;;;;;5046963;28;20456;-71
2023/03/20 00:54:47;;;;;;;4.13;2.88;;;7.90;99.90;;;;;;5044325;28;20975;-70
2023/03/20 00:57:16;;;;;;;3.92;2.90;;;7.70;99.90;;;;;;5047019;28;20036;-71
2023/03/20 00:59:52;;;;;;;3.70;2.97;;;7.70;99.90;;;;;;5050074;28;20669;-70
2023/03/20 01:02:18;;;;;;;4.05;2.97;;;7.70;99.90;;;;;;5042448;28;20394;-71
2023/03/20 01:04:43;;;;;;;3.78;2.90;;;7.70;99.90;;;;;;5047595;28;20040;-71
2023/03/20 01:07:14;;;;;;;3.13;2.75;;;7.70;99.90;;;;;;5041512;28;20259;-71
2023/03/20 01:09:40;;;;;;;3.97;2.97;;;7.70;99.90;;;;;;5048249;28;20028;-70
2023/03/20 01:12:09;;;;;;;3.05;2.50;;;7.80;99.90;;;;;;5044925;28;20096;-70
2023/03/20 01:14:35;;;;;;;3.25;2.67;;;7.80;99.90;;;;;;5049484;28;20051;-71
2023/03/20 01:17:00;;;;;;;6.78;2.90;;;7.80;99.90;;;;;;5056213;28;20545;-71
2023/03/20 01:19:26;;;;;;;3.20;2.75;;;7.80;99.90;;;;;;5052948;28;20789;-71
2023/03/20 01:21:52;;;;;;;4.47;2.78;;;7.70;99.90;;;;;;5056365;28;20131;-71
2023/03/20 01:24:17;;;;;;;4.90;2.80;;;7.70;99.90;;;;;;5056667;28;20029;-71
2023/03/20 01:26:45;;;;;;;5.97;3.30;;;7.70;99.90;;;;;;5056526;28;20036;-67
2023/03/20 01:29:23;;;;;;;3.63;3.05;;;7.70;99.90;;;;;;5048387;28;20041;-67
2023/03/20 01:31:49;;;;;;;3.72;2.60;;;7.70;99.90;;;;;;5053096;28;20098;-67
2023/03/20 01:34:15;;;;;;;10.00;3.13;;;7.60;99.90;;;;;;5055099;28;20043;-67
2023/03/20 01:36:53;;;;;;;3.95;2.72;;;7.60;99.90;;;;;;5051791;28;20037;-67
2023/03/20 01:39:23;;;;;;;5.15;3.40;;;7.70;99.90;;;;;;5051179;28;20064;-67
2023/03/20 01:41:51;;;;;;;4.32;3.33;;;7.70;99.90;;;;;;5056563;28;20051;-67
2023/03/20 01:44:23;;;;;;;4.97;3.20;;;7.70;99.90;;;;;;5047047;28;20055;-67
2023/03/20 01:46:52;;;;;;;6.82;3.88;;;7.60;99.90;;;;;;5053697;28;20182;-67
2023/03/20 01:49:18;;;;;;;4.32;3.45;;;7.60;99.90;;;;;;5055359;28;20120;-67
2023/03/20 01:51:44;;;;;;;3.75;3.15;;;7.50;99.90;;;;;;5054107;28;20401;-67
2023/03/20 01:54:21;;;;;;;3.58;2.75;;;7.40;99.90;;;;;;5050358;28;20619;-67
2023/03/20 01:56:49;;;;;;;3.17;2.53;;;7.40;99.90;;;;;;5051634;28;20059;-67
2023/03/20 01:59:23;;;;;;;3.20;2.35;;;7.30;99.90;;;;;;5055043;28;20115;-67
2023/03/20 02:01:49;;;;;;;3.75;3.10;;;7.20;99.90;;;;;;5045888;28;20386;-67
2023/03/20 02:04:15;;;;;;;3.88;2.58;;;7.20;99.90;;;;;;5057251;28;21849;-71
2023/03/20 02:06:43;;;;;;;4.22;2.65;;;7.20;99.90;;;;;;5051962;28;20085;-71
2023/03/20 02:09:10;;;;;;;3.72;2.50;;;7.20;99.90;;;;;;5047593;28;20041;-70
2023/03/20 02:11:38;;;;;;;3.15;2.70;;;7.10;99.90;;;;;;5053295;28;20052;-70
2023/03/20 02:14:05;;;;;;;4.68;2.97;;;7.10;99.90;;;;;;5054146;28;20036;-70
2023/03/20 02:16:31;;;;;;;3.80;2.60;;;7.00;99.90;;;;;;5049987;28;20031;-70
2023/03/20 02:18:57;;;;;;;4.38;2.53;;;6.90;99.90;;;;;;5054868;28;20448;-70
2023/03/20 02:21:38;;;;;;;2.85;2.40;;;6.80;99.90;;;;;;5057443;28;20573;-71
2023/03/20 02:24:46;;;;;;;3.00;2.47;;;6.70;99.90;;;;;;5049347;28;20041;-67
2023/03/20 02:27:39;;;;;;;7.10;2.72;;;6.70;99.90;;;;;;5049261;28;20032;-67
2023/03/20 02:30:34;;;;;;;3.65;3.00;;;6.70;99.90;;;;;;5047736;28;20048;-67
2023/03/20 02:33:02;;;;;;;3.00;2.30;;;6.60;99.90;;;;;;5045555;28;20139;-67
2023/03/20 02:35:49;;;;;;;4.97;3.30;;;6.60;99.90;;;;;;5052892;28;20029;-66
2023/03/20 02:38:39;;;;;;;4.47;2.75;;;6.60;99.90;;;;;;5052831;28;20639;-67
2023/03/20 02:41:29;;;;;;;5.95;2.67;;;6.50;99.90;;;;;;5037270;28;20600;-70
2023/03/20 02:44:07;;;;;;;3.35;2.30;;;6.30;99.90;;;;;;5049928;28;20040;-66
2023/03/20 02:46:42;;;;;;;2.72;2.50;;;6.10;99.90;;;;;;5047312;28;20547;-67
2023/03/20 02:49:32;;;;;;;3.30;2.17;;;6.00;99.90;;;;;;5047002;28;20076;-66
2023/03/20 02:52:20;;;;;;;3.30;2.67;;;6.00;99.90;;;;;;5033998;28;20760;-66
2023/03/20 02:54:48;;;;;;;4.30;2.67;;;6.00;99.90;;;;;;5049374;28;20163;-67
2023/03/20 02:57:38;;;;;;;5.60;2.53;;;6.00;99.90;;;;;;5041038;28;20501;-67
2023/03/20 03:00:12;;;;;;;4.32;2.65;;;6.00;99.90;;;;;;5054280;28;20036;-67
2023/03/20 03:02:48;;;;;;;3.85;2.83;;;6.00;99.90;;;;;;5048299;28;20447;-66
2023/03/20 03:05:50;;;;;;;3.40;2.55;;;6.00;99.90;;;;;;5048584;28;20078;-67
2023/03/20 03:08:19;;;;;;;3.60;3.17;;;6.00;99.90;;;;;;5055042;28;20048;-67
2023/03/20 03:10:54;;;;;;;4.10;2.85;;;6.00;99.90;;;;;;5051773;28;20122;-67
2023/03/20 03:13:25;;;;;;;3.63;2.95;;;6.00;99.90;;;;;;5054129;28;20109;-67
2023/03/20 03:15:54;;;;;;;3.25;2.33;;;6.00;99.90;;;;;;5051030;28;20509;-67
2023/03/20 03:18:23;;;;;;;3.53;2.58;;;5.80;99.90;;;;;;5035064;28;20198;-68
2023/03/20 03:20:54;;;;;;;3.47;3.00;;;5.70;99.90;;;;;;5053282;28;20119;-67
2023/03/20 03:23:33;;;;;;;4.68;3.33;;;5.70;99.90;;;;;;5051829;28;20025;-67
2023/03/20 03:26:03;;;;;;;3.83;2.28;;;5.90;99.90;;;;;;5031901;28;20607;-67
2023/03/20 03:28:39;;;;;;;3.38;2.40;;;5.90;99.90;;;;;;5055660;28;20057;-67
2023/03/20 03:31:16;;;;;;;2.40;2.20;;;5.90;99.90;;;;;;5051281;28;20053;-66
2023/03/20 03:33:46;;;;;;;2.45;2.13;;;5.80;99.90;;;;;;5050729;28;20063;-67
2023/03/20 03:36:35;;;;;;;5.80;2.40;;;5.70;99.90;;;;;;5055017;28;20484;-67
2023/03/20 03:39:15;;;;;;;4.63;2.45;;;5.50;99.90;;;;;;5054150;28;20249;-67
2023/03/20 03:41:52;;;;;;;3.55;2.67;;;5.40;99.90;;;;;;5049395;28;20036;-66
2023/03/20 03:44:36;;;;;;;3.97;2.70;;;5.40;99.90;;;;;;5053599;28;21144;-67
2023/03/20 03:47:20;;;;;;;3.10;2.63;;;5.40;99.90;;;;;;5049279;28;20055;-67
2023/03/20 03:49:52;;;;;;;3.35;2.88;;;5.40;99.90;;;;;;5045985;28;20516;-67
2023/03/20 03:52:22;;;;;;;3.20;2.50;;;5.30;99.90;;;;;;5049581;28;20799;-67
2023/03/20 03:54:55;;;;;;;4.60;2.85;;;5.30;99.90;;;;;;5045619;28;20504;-67
2023/03/20 03:57:37;;;;;;;3.63;2.90;;;5.20;99.90;;;;;;5048059;28;20040;-67
2023/03/20 04:00:05;;;;;;;8.95;4.68;;;5.20;99.90;;;;;;5050629;28;20040;-71
2023/03/20 04:02:32;;;;;;;6.10;3.60;;;5.20;99.90;;;;;;5045175;28;20101;-71
2023/03/20 04:05:00;;;;;;;5.78;4.18;;;5.20;99.90;;;;;;5045182;28;20040;-71
2023/03/20 04:07:28;;;;;;;6.82;4.72;;;5.20;99.90;;;;;;5039361;28;20037;-70
2023/03/20 04:09:54;;;;;;;8.70;6.45;;;5.20;99.90;;;;;;5042846;28;20102;-70
2023/03/20 04:12:40;;;;;;;6.60;4.15;;;5.20;99.90;;;;;;5042804;28;20041;-70
2023/03/20 04:15:07;;;;;;;5.10;3.05;;;5.30;99.90;;;;;;5036546;28;20040;-69
2023/03/20 04:17:33;;;;;;;6.82;5.05;;;5.10;99.90;;;;;;5045030;28;20029;-69
2023/03/20 04:19:59;;;;;;;12.00;7.03;;;5.10;99.90;;;;;;5044282;28;20053;-69
2023/03/20 04:22:25;;;;;;;9.40;6.53;;;5.10;99.90;;;;;;5042426;28;20036;-69
2023/03/20 04:24:51;;;;;;;14.82;8.27;;;5.10;99.90;;;;;;5042231;28;20115;-70
2023/03/20 04:27:18;;;;;;;15.38;9.25;;;5.20;99.90;;;;;;5048419;28;20098;-70
2023/03/20 04:29:43;;;;;;;14.15;8.70;;;5.30;99.90;;;;;;5039386;28;20171;-71
2023/03/20 04:32:10;;;;;;;3.35;2.42;;;5.40;99.90;;;;;;5042989;28;20707;-69
2023/03/20 04:34:35;;;;;;;2.58;2.28;;;5.40;99.90;;;;;;5043500;28;20041;-69
2023/03/20 04:37:01;;;;;;;3.00;2.13;;;5.20;99.90;;;;;;5044791;28;20032;-69
2023/03/20 04:39:27;;;;;;;3.05;2.75;;;5.00;99.90;;;;;;5043716;28;20037;-70
2023/03/20 04:41:53;;;;;;;4.45;2.55;;;4.80;99.90;;;;;;5038066;28;20508;-70
2023/03/20 04:44:19;;;;;;;6.30;2.60;;;4.80;99.90;;;;;;5042806;28;20045;-72
2023/03/20 04:46:44;;;;;;;8.38;2.83;;;4.70;99.90;;;;;;5044574;28;20061;-69
2023/03/20 04:49:10;;;;;;;8.90;5.15;;;4.70;99.90;;;;;;5047881;28;20041;-71
2023/03/20 04:51:36;;;;;;;10.40;6.00;;;4.80;99.90;;;;;;5053377;28;20040;-70
2023/03/20 04:54:01;;;;;;;9.55;4.53;;;5.00;99.90;;;;;;5039372;28;20052;-70
2023/03/20 04:56:27;;;;;;;7.38;3.92;;;5.10;99.90;;;;;;5033970;28;20036;-70
2023/03/20 04:58:53;;;;;;;8.07;3.25;;;5.10;99.90;;;;;;5056322;28;20045;-70
2023/03/20 05:01:18;;;;;;;7.57;4.07;;;5.00;99.90;;;;;;5033785;28;20064;-70
2023/03/20 05:03:44;;;;;;;6.20;4.00;;;4.90;99.90;;;;;;5053961;28;20037;-70
2023/03/20 05:06:10;;;;;;;5.10;3.67;;;4.90;99.90;;;;;;5053930;28;20064;-70
2023/03/20 05:08:36;;;;;;;2.97;2.72;;;4.80;99.90;;;;;;5054007;28;20095;-70
2023/03/20 05:11:02;;;;;;;3.10;2.25;;;4.80;99.90;;;;;;5037991;28;20043;-70
2023/03/20 05:13:27;;;;;;;3.80;2.08;;;4.80;99.90;;;;;;5057730;28;20044;-71
2023/03/20 05:15:53;;;;;;;3.08;2.42;;;4.70;99.90;;;;;;5057961;28;20024;-70
2023/03/20 05:18:19;;;;;;;2.58;2.35;;;4.60;99.90;;;;;;5054759;28;20686;-70
2023/03/20 05:20:45;;;;;;;2.85;2.17;;;4.60;99.90;;;;;;5055029;28;20040;-71
2023/03/20 05:23:11;;;;;;;3.88;2.58;;;4.60;99.90;;;;;;5057868;28;20083;-70
2023/03/20 05:25:36;;;;;;;5.25;2.95;;;4.60;99.90;;;;;;5054442;28;20045;-71
2023/03/20 05:28:02;;;;;;;5.93;3.85;;;4.60;99.90;;;;;;5054227;28;20308;-70
2023/03/20 05:30:28;;;;;;;7.25;4.22;;;4.70;99.90;;;;;;5052303;28;20105;-67
2023/03/20 05:32:53;;;;;;;6.55;4.75;;;4.80;99.90;;;;;;5056770;28;20043;-67
2023/03/20 05:35:19;;;;;;;9.93;5.85;;;5.00;99.90;;;;;;5057622;28;20043;-70
2023/03/20 05:37:45;;;;;;;10.65;5.80;;;5.30;99.90;;;;;;5057691;28;20451;-71
2023/03/20 05:40:13;;;;;;;17.50;7.57;;;5.40;99.90;;;;;;5057053;28;20532;-70
2023/03/20 05:42:39;;;;;;;9.63;5.82;;;5.50;99.90;;;;;;5052837;28;20068;-71
2023/03/20 05:45:06;;;;;;;4.18;3.67;;;5.50;99.90;;;;;;5049238;28;20164;-70
2023/03/20 05:47:31;;;;;;;4.38;3.38;;;5.50;99.90;;;;;;5057130;28;20029;-70
2023/03/20 05:49:57;;;;;;;4.63;3.22;;;5.30;99.90;;;;;;5052995;28;20625;-70
2023/03/20 05:52:23;;;;;;;4.63;2.90;;;5.20;99.90;;;;;;5053721;28;20032;-70
2023/03/20 05:54:49;;;;;;;4.75;3.00;;;5.20;99.90;;;;;;5055409;28;20106;-70
2023/03/20 05:57:16;;;;;;;5.38;3.70;;;5.20;99.90;;;;;;5052809;28;20041;-71
2023/03/20 05:59:41;;;;;;;7.93;3.92;;;5.30;99.90;;;;;;5053809;28;20040;-70
2023/03/20 06:02:07;;;;;;;8.45;4.68;;;5.40;99.90;;;;;;5046497;28;20041;-71
2023/03/20 06:04:36;;;;;;;4.72;3.58;;;5.60;99.90;;;;;;5055441;28;22063;-70
2023/03/20 06:07:02;;;;;;;7.40;3.95;;;5.70;99.90;;;;;;5051639;28;21455;-70
2023/03/20 06:09:28;;;;;;;5.30;4.43;;;5.70;99.90;;;;;;5050683;28;20028;-70
2023/03/20 06:11:53;;;;;;;11.50;5.18;;;5.70;99.90;;;;;;5044764;28;20063;-70
2023/03/20 06:14:19;;;;;;;7.78;5.40;;;5.90;99.90;;;;;;5050194;28;20051;-70
2023/03/20 06:16:45;;;;;;;7.63;5.32;;;6.00;99.90;;;;;;5047150;28;20040;-70
2023/03/20 06:19:11;;;;;;;10.30;5.88;;;6.30;99.90;;;;;;5048533;28;20040;-70
2023/03/20 06:21:37;;;;;;;11.68;5.53;;;6.40;99.90;;;;;;5053584;28;20439;-70
2023/03/20 06:24:02;;;;;;;8.10;5.80;;;6.40;99.90;;;;;;5036862;28;20504;-69
2023/03/20 06:26:28;;;;;;;9.20;6.35;;;6.30;99.90;;;;;;5048337;28;20053;-69
2023/03/20 06:28:54;;;;;;;8.73;6.80;;;6.40;99.90;;;;;;5048523;28;20036;-69
2023/03/20 06:31:20;;;;;;;8.45;6.53;;;6.50;99.90;;;;;;5050623;28;20343;-67
2023/03/20 06:33:46;;;;;;;10.52;7.97;;;6.60;99.90;;;;;;5050117;28;20576;-67
2023/03/20 06:36:12;;;;;;;14.57;9.07;;;6.70;99.90;;;;;;5050968;28;20682;-67
2023/03/20 06:38:37;;;;;;;13.60;10.52;;;6.90;99.90;;;;;;5048455;28;20127;-67
2023/03/20 06:41:03;;;;;;;9.77;7.78;;;7.10;99.90;;;;;;5052773;28;20057;-67
2023/03/20 06:43:29;;;;;;;9.20;6.90;;;7.30;99.90;;;;;;5046724;28;20117;-67
2023/03/20 06:45:55;;;;;;;10.68;7.53;;;7.50;99.90;;;;;;5044475;28;20067;-67
2023/03/20 06:48:21;;;;;;;9.85;7.60;;;7.60;99.90;;;;;;5056409;28;20449;-67
2023/03/20 06:50:50;;;;;;;11.20;7.72;;;7.70;99.90;;;;;;5048777;28;20028;-70
2023/03/20 06:53:16;;;;;;;10.07;6.85;;;7.90;99.90;;;;;;5050408;28;20059;-70
2023/03/20 06:55:42;;;;;;;15.10;7.40;;;8.10;99.90;;;;;;5048523;28;20044;-71
2023/03/20 06:58:08;;;;;;;11.15;8.30;;;8.10;99.90;;;;;;5054233;28;20051;-70
2023/03/20 07:00:33;;;;;;;12.60;8.82;;;8.40;99.90;;;;;;5054554;28;20044;-71
2023/03/20 07:02:59;;;;;;;11.13;8.68;;;8.60;99.90;;;;;;5040541;28;20046;-71
2023/03/20 07:05:26;;;;;;;12.85;9.55;;;8.80;99.90;;;;;;5048574;28;20129;-70
2023/03/20 07:07:51;;;;;;;10.50;8.82;;;9.00;99.90;;;;;;5046444;28;20064;-70
2023/03/20 07:10:18;;;;;;;13.57;8.27;;;9.30;99.90;;;;;;5044080;28;20044;-71
2023/03/20 07:12:44;;;;;;;11.05;8.25;;;9.50;99.90;;;;;;5052209;28;20408;-71
2023/03/20 07:15:10;;;;;;;5.97;4.60;;;9.80;99.90;;;;;;5055167;28;20036;-69
2023/03/20 07:17:36;;;;;;;4.35;3.85;;;10.00;99.90;;;;;;5057827;28;20038;-68
2023/03/20 07:20:02;;;;;;;4.40;3.78;;;10.30;99.90;;;;;;5052429;28;20392;-71
2023/03/20 07:22:30;;;;;;;3.60;3.10;;;10.50;99.90;;;;;;5052362;28;20029;-70
2023/03/20 07:24:56;;;;;;;4.72;3.40;;;10.60;99.90;;;;;;5047053;28;20045;-71
2023/03/20 07:27:22;;;;;;;4.30;3.42;;;10.80;99.90;;;;;;5053452;28;20048;-69
2023/03/20 07:29:48;;;;;;;4.95;3.78;;;11.00;99.90;;;;;;5036823;28;20033;-66
2023/03/20 07:32:14;;;;;;;6.05;4.00;;;11.10;99.90;;;;;;5028449;28;20090;-67
2023/03/20 07:34:40;;;;;;;5.53;4.03;;;11.20;99.90;;;;;;5042830;28;21037;-66
2023/03/20 07:37:06;;;;;;;4.22;3.65;;;11.40;99.90;;;;;;5050465;28;20116;-66
2023/03/20 07:39:31;;;;;;;4.97;4.25;;;11.50;99.90;;;;;;5042688;28;20456;-66
2023/03/20 07:41:57;;;;;;;6.30;3.72;;;11.60;99.90;;;;;;5054351;28;20402;-66
2023/03/20 07:44:23;;;;;;;5.68;3.95;;;11.70;99.90;;;;;;5049758;28;20051;-66
2023/03/20 07:46:48;;;;;;;5.30;4.15;;;11.70;99.90;;;;;;5052637;28;20127;-66
2023/03/20 07:49:17;;;;;;;5.22;4.10;;;11.90;99.90;;;;;;5053891;28;20029;-69
2023/03/20 07:51:43;;;;;;;4.32;3.65;;;12.00;99.90;;;;;;5057896;28;20064;-68
2023/03/20 07:54:09;;;;;;;6.40;3.85;;;12.00;99.90;;;;;;5057120;28;20132;-69
2023/03/20 07:56:35;;;;;;;5.05;3.90;;;12.10;99.40;;;;;;5057268;28;20029;-69
2023/03/20 07:59:01;;;;;;;4.97;3.80;;;12.20;99.30;;;;;;5048591;28;20139;-69
2023/03/20 08:01:27;;;;;;;6.82;5.03;;;12.30;98.40;;;;;;5043667;28;20056;-69
2023/03/20 08:03:52;;;;;;;4.07;3.47;;;12.40;97.90;;;;;;5033699;28;20029;-69
2023/03/20 08:06:18;;;;;;;4.03;3.45;;;12.40;96.60;;;;;;5039489;28;20048;-69
2023/03/20 08:08:44;;;;;;;4.10;3.35;;;12.40;97.20;;;;;;5041911;28;20044;-70
2023/03/20 08:11:10;;;;;;;6.68;4.40;;;12.40;96.80;;;;;;5034708;28;20044;-70
2023/03/20 08:13:36;;;;;;;4.97;3.67;;;12.50;96.60;;;;;;5046128;28;20083;-70
2023/03/20 08:16:02;;;;;;;6.38;3.90;;;12.70;96.40;;;;;;5050959;28;20481;-70
2023/03/20 08:18:28;;;;;;;5.15;3.50;;;12.70;95.70;;;;;;5034814;28;20037;-70
2023/03/20 08:20:54;;;;;;;8.13;4.65;;;12.80;96.20;;;;;;5047110;28;20119;-70
2023/03/20 08:23:20;;;;;;;5.30;3.72;;;12.90;94.90;;;;;;5053513;28;20645;-70
2023/03/20 08:25:48;;;;;;;5.32;4.00;;;12.90;94.10;;;;;;5045488;28;20659;-70
2023/03/20 08:28:14;;;;;;;4.78;3.78;;;12.90;94.10;;;;;;5043241;28;20043;-71
2023/03/20 08:30:40;;;;;;;4.57;3.53;;;13.00;94.10;;;;;;5046656;28;20052;-71
2023/03/20 08:33:06;;;;;;;4.57;3.70;;;13.10;93.20;;;;;;5051237;28;20645;-70
2023/03/20 08:35:31;;;;;;;4.18;3.67;;;13.20;93.00;;;;;;5038302;28;20024;-69
2023/03/20 08:37:57;;;;;;;5.97;3.70;;;13.30;92.70;;;;;;5039359;28;20040;-70
2023/03/20 08:40:23;;;;;;;6.50;4.05;;;13.30;93.10;;;;;;5043577;28;20040;-70
2023/03/20 08:42:49;;;;;;;7.80;3.83;;;13.50;92.10;;;;;;5052624;28;20497;-71
2023/03/20 08:45:15;;;;;;;4.85;3.88;;;13.50;92.50;;;;;;5052705;28;20028;-66
2023/03/20 08:47:41;;;;;;;5.68;4.28;;;13.60;90.90;;;;;;5048480;28;20144;-66
2023/03/20 08:50:08;;;;;;;6.22;3.45;;;13.60;90.60;;;;;;5042317;28;20130;-66
2023/03/20 08:52:35;;;;;;;5.15;3.35;;;13.60;91.10;;;;;;5025262;28;20334;-65
2023/03/20 08:55:01;;;;;;;4.85;3.70;;;13.70;90.00;;;;;;5031710;28;20461;-66
2023/03/20 08:57:27;;;;;;;3.72;3.10;;;13.70;89.30;;;;;;5029632;28;20121;-65
2023/03/20 08:59:54;;;;;;;5.47;3.88;;;13.90;90.00;;;;;;5030250;28;20049;-65
2023/03/20 09:02:19;;;;;;;4.43;3.47;;;14.00;89.80;;;;;;5032088;28;20322;-65
2023/03/20 09:04:45;;;;;;;4.13;3.40;;;14.10;88.40;;;;;;5033756;28;20524;-65
2023/03/20 09:07:11;;;;;;;4.72;3.60;;;14.20;86.50;;;;;;5030865;28;20070;-65
2023/03/20 09:09:36;;;;;;;4.75;3.35;;;14.20;86.40;;;;;;5044318;28;20506;-66
2023/03/20 09:12:02;;;;;;;6.30;3.65;;;14.20;86.10;;;;;;5046454;28;20052;-65
2023/03/20 09:14:29;;;;;;;5.35;3.22;;;14.20;83.70;;;;;;5046412;28;20032;-65
2023/03/20 09:16:55;;;;;;;6.03;3.22;;;14.20;82.40;;;;;;5038930;28;20304;-65
2023/03/20 09:19:21;;;;;;;12.45;3.78;;;14.20;83.30;;;;;;5037963;28;20423;-66
2023/03/20 09:21:47;;;;;;;4.57;3.40;;;14.20;83.20;;;;;;5037156;28;20264;-66
2023/03/20 09:24:13;;;;;;;4.65;3.13;;;14.30;84.00;;;;;;5019255;28;20036;-66
2023/03/20 09:26:39;;;;;;;5.22;3.65;;;14.50;83.40;;;;;;5025211;28;20135;-66
2023/03/20 09:29:05;;;;;;;5.18;3.42;;;14.50;78.40;;;;;;5032845;28;20180;-66
2023/03/20 09:31:33;;;;;;;5.43;3.70;;;14.40;78.20;;;;;;5016375;28;20304;-66
2023/03/20 09:33:59;;;;;;;4.78;3.58;;;14.40;78.40;;;;;;5034430;28;20641;-66
2023/03/20 09:36:25;;;;;;;4.40;3.28;;;14.40;77.80;;;;;;5032347;28;20567;-66
2023/03/20 09:38:51;;;;;;;4.28;2.95;;;14.40;77.80;;;;;;5032349;28;20130;-66
2023/03/20 09:41:21;;;;;;;3.90;2.85;;;14.50;78.50;;;;;;5025357;28;20511;-65
2023/03/20 09:44:24;;;;;;;5.25;3.40;;;14.50;79.80;;;;;;5034525;28;20036;-66
2023/03/20 09:47:07;;;;;;;7.22;4.60;;;14.60;78.10;;;;;;5026642;28;20047;-65
2023/03/20 09:49:44;;;;;;;7.30;3.38;;;14.70;78.20;;;;;;5026642;28;20576;-66
2023/03/20 09:52:31;;;;;;;4.40;3.53;;;14.80;77.70;;;;;;5033729;28;20120;-66
2023/03/20 09:55:20;;;;;;;5.55;3.58;;;15.00;78.00;;;;;;5032504;28;20056;-66
2023/03/20 09:57:51;;;;;;;5.72;3.70;;;15.10;77.00;;;;;;5030020;28;20298;-65
2023/03/20 10:00:24;;;;;;;5.20;3.80;;;15.20;75.30;;;;;;5025231;28;20741;-65
2023/03/20 10:03:07;;;;;;;5.05;3.47;;;15.20;74.80;;;;;;5022631;28;20267;-68
2023/03/20 10:05:47;;;;;;;5.70;3.80;;;15.40;75.70;;;;;;5031676;28;20174;-69
2023/03/20 10:08:15;;;;;;;4.65;3.67;;;15.40;74.00;;;;;;5047479;28;20078;-69
2023/03/20 10:11:19;;;;;;;5.20;3.47;;;15.50;74.10;;;;;;5051430;28;20382;-69
2023/03/20 10:14:17;;;;;;;5.28;4.13;;;15.50;74.60;;;;;;5054894;28;20536;-69
2023/03/20 10:17:22;;;;;;;5.90;3.80;;;15.60;75.40;;;;;;5042632;28;20032;-65
2023/03/20 10:19:57;;;;;;;4.18;3.80;;;15.70;74.20;;;;;;5021292;28;20488;-65
2023/03/20 10:22:28;;;;;;;6.25;4.10;;;15.70;75.00;;;;;;5054635;28;20032;-65
2023/03/20 10:25:09;;;;;;;9.00;4.28;;;15.70;73.20;;;;;;5037302;28;20033;-65
2023/03/20 10:27:46;;;;;;;5.35;4.65;;;15.80;74.20;;;;;;5040776;28;20044;-66
2023/03/20 10:30:33;;;;;;;4.57;4.03;;;15.90;73.90;;;;;;5039928;28;20041;-66
2023/03/20 10:33:30;;;;;;;7.90;4.55;;;16.10;73.90;;;;;;5030066;28;20047;-73
2023/03/20 10:36:17;;;;;;;16.13;4.47;;;16.20;73.50;;;;;;5039724;28;20134;-65
2023/03/20 10:39:10;;;;;;;4.90;4.00;;;16.30;74.70;;;;;;5045482;28;20086;-65
2023/03/20 10:41:38;;;;;;;7.43;3.95;;;16.50;73.00;;;;;;5053439;28;20060;-64
2023/03/20 10:44:09;;;;;;;6.38;4.85;;;16.40;72.10;;;;;;5056242;28;20490;-64
2023/03/20 10:46:43;;;;;;;8.82;4.35;;;16.40;71.90;;;;;;5054418;28;20040;-67
2023/03/20 10:49:17;;;;;;;6.15;4.60;;;16.50;71.00;;;;;;5053306;28;20043;-65
2023/03/20 10:51:54;;;;;;;38.85;5.88;;;16.40;69.60;;;;;;5055251;28;20556;-65
2023/03/20 10:54:45;;;;;;;6.70;4.47;;;16.30;69.90;;;;;;5034793;28;20084;-66
2023/03/20 10:57:22;;;;;;;5.90;4.13;;;16.30;70.40;;;;;;5047833;28;21201;-70
2023/03/20 10:59:54;;;;;;;5.47;4.78;;;16.40;68.90;;;;;;5052398;28;20133;-66
2023/03/20 11:02:23;;;;;;;5.30;4.70;;;16.50;70.70;;;;;;5052770;28;20113;-66
2023/03/20 11:04:49;;;;;;;13.90;8.02;;;16.50;69.30;;;;;;5052755;28;20042;-66
2023/03/20 11:07:20;;;;;;;6.10;5.00;;;16.50;68.00;;;;;;5052694;28;20521;-66
2023/03/20 11:10:09;;;;;;;14.35;6.97;;;16.60;68.40;;;;;;5047580;28;20144;-66
2023/03/20 11:12:42;;;;;;;13.10;5.65;;;16.60;67.70;;;;;;5051030;28;20036;-66
2023/03/20 11:15:30;;;;;;;4.82;4.13;;;16.50;69.00;;;;;;5054634;28;20031;-67
2023/03/20 11:18:05;;;;;;;5.65;4.38;;;16.40;69.90;;;;;;5052808;28;20059;-67
2023/03/20 11:20:38;;;;;;;6.35;4.45;;;16.40;70.30;;;;;;5051752;28;20605;-67
2023/03/20 11:23:05;;;;;;;5.88;4.40;;;16.60;70.00;;;;;;5051256;28;20036;-67
2023/03/20 11:28:33;;;;;;;6.20;4.25;;;16.70;68.40;;;;;;5054673;28;20047;-66
2023/03/20 11:31:23;;;;;;;7.55;4.50;;;16.80;68.30;;;;;;5054296;28;20262;-67
2023/03/20 11:34:00;;;;;;;5.63;4.70;;;16.90;66.70;;;;;;5048995;28;20055;-67
2023/03/20 11:36:28;;;;;;;9.65;4.80;;;16.80;67.20;;;;;;5055360;28;20125;-67
2023/03/20 11:39:25;;;;;;;5.80;4.25;;;16.90;67.10;;;;;;5046683;28;20134;-67
2023/03/20 11:41:56;;;;;;;6.45;4.55;;;17.00;67.10;;;;;;5044682;28;20109;-65
2023/03/20 11:44:26;;;;;;;7.45;5.35;;;17.10;66.40;;;;;;5053542;28;20041;-64
2023/03/20 11:47:20;;;;;;;6.90;4.60;;;17.10;65.40;;;;;;5052126;28;20033;-64
2023/03/20 11:49:52;;;;;;;8.50;4.50;;;17.10;66.10;;;;;;5047248;28;20099;-65
2023/03/20 11:52:34;;;;;;;5.18;4.40;;;17.30;65.90;;;;;;5052423;28;20033;-65
2023/03/20 11:55:03;;;;;;;5.57;4.60;;;17.30;66.00;;;;;;5050155;28;20556;-65
2023/03/20 11:57:33;;;;;;;5.30;3.92;;;17.40;64.70;;;;;;5053117;28;20036;-65
2023/03/20 12:00:23;;;;;;;6.28;4.38;;;17.50;64.90;;;;;;5051914;28;20658;-66
2023/03/20 12:02:49;;;;;;;4.95;4.22;;;17.60;64.70;;;;;;5034340;28;20076;-65
2023/03/20 12:05:35;;;;;;;9.05;5.00;;;17.60;64.70;;;;;;5049983;28;20036;-64
2023/03/20 12:08:25;;;;;;;7.43;4.50;;;17.70;65.40;;;;;;5037639;28;20565;-65
2023/03/20 12:10:58;;;;;;;6.50;4.43;;;17.80;64.30;;;;;;5033199;28;21223;-65
2023/03/20 12:13:34;;;;;;;8.45;5.32;;;17.90;66.10;;;;;;5041199;28;20061;-65
2023/03/20 12:16:12;;;;;;;7.32;5.13;;;17.90;66.40;;;;;;5047542;28;20175;-65
2023/03/20 12:18:45;;;;;;;7.70;4.65;;;18.10;66.50;;;;;;5048642;28;20036;-65
2023/03/20 12:21:18;;;;;;;8.00;4.15;;;18.10;63.20;;;;;;5049172;28;21439;-65
2023/03/20 12:23:55;;;;;;;6.18;4.47;;;18.10;63.00;;;;;;5049754;28;20098;-65
2023/03/20 12:26:30;;;;;;;6.63;4.60;;;18.10;62.00;;;;;;5049432;28;20106;-65
2023/03/20 12:29:06;;;;;;;7.18;4.78;;;18.10;61.60;;;;;;5045013;28;20047;-66
2023/03/20 12:31:32;;;;;;;6.72;4.68;;;18.20;60.80;;;;;;5051690;28;20423;-66
2023/03/20 12:34:19;;;;;;;7.07;4.53;;;18.20;61.70;;;;;;5051226;28;20075;-65
2023/03/20 12:36:47;;;;;;;4.93;3.97;;;18.20;61.10;;;;;;5050783;28;20523;-65
2023/03/20 12:39:24;;;;;;;4.82;4.15;;;18.20;61.00;;;;;;5051418;28;20025;-66
2023/03/20 12:42:03;;;;;;;9.27;6.25;;;18.20;62.00;;;;;;5049375;28;20039;-64
2023/03/20 12:44:40;;;;;;;5.43;4.53;;;18.30;62.90;;;;;;5051882;28;20169;-65
2023/03/20 12:47:24;;;;;;;5.63;4.50;;;18.40;61.40;;;;;;5052822;28;20055;-64
2023/03/20 12:49:59;;;;;;;6.75;4.40;;;18.60;61.40;;;;;;5049608;28;20028;-65
2023/03/20 12:52:55;;;;;;;6.78;4.22;;;18.60;60.30;;;;;;5053053;28;20407;-66
2023/03/20 12:55:35;;;;;;;6.78;4.40;;;18.70;60.20;;;;;;5054773;28;20087;-70
2023/03/20 12:58:18;;;;;;;6.50;4.80;;;18.80;61.10;;;;;;5051208;28;20040;-71
2023/03/20 13:01:29;;;;;;;6.93;3.72;;;18.90;59.60;;;;;;5047892;28;20681;-72
2023/03/20 13:04:26;;;;;;;5.13;4.10;;;19.00;60.10;;;;;;5039406;28;20045;-73
2023/03/20 13:06:59;;;;;;;4.97;3.88;;;19.00;57.90;;;;;;5044865;28;20055;-72
2023/03/20 13:09:34;;;;;;;4.75;3.83;;;19.00;58.70;;;;;;5045417;28;20999;-71
2023/03/20 13:12:11;;;;;;;5.40;3.67;;;19.00;58.50;;;;;;5047233;28;20118;-65
2023/03/20 13:15:23;;;;;;;4.32;3.42;;;18.90;58.00;;;;;;5044479;28;20146;-65